createdAt,value
2023-02-24T00:47:05.105Z,100743.63
2023-02-24T00:49:36.042Z,100749.19
2023-02-24T00:52:08.801Z,100755.59
2023-02-24T00:54:37.248Z,100763.19
2023-02-24T00:57:08.369Z,100753.19
2023-02-24T00:59:36.882Z,100752.38
2023-02-24T01:45:59.937Z,100732.97
2023-02-24T01:48:28.265Z,100733.88
2023-02-24T01:50:56.584Z,100733.06
2023-02-24T01:53:24.790Z,100739.47
2023-02-24T01:55:53.237Z,100732.25
2023-02-24T01:58:24.071Z,100729.47
2023-02-24T02:47:43.407Z,100707.38
2023-02-24T02:50:11.961Z,100710.16
2023-02-24T02:52:42.562Z,100707.38
2023-02-24T02:55:11.487Z,100706.56
2023-02-24T02:57:40.298Z,100701.78
2023-02-24T03:47:05.864Z,100653.34
2023-02-24T03:49:37.683Z,100651.34
2023-02-24T03:52:10.189Z,100644.13
2023-02-24T03:54:47.027Z,100646.13
2023-02-24T03:57:19.186Z,100641.72
2023-02-24T03:59:54.390Z,100640.53
2023-02-24T04:55:10.238Z,100582.53
2023-02-24T04:57:38.887Z,100580.56
2023-02-24T05:46:59.350Z,100532.31
2023-02-24T05:49:29.672Z,100527.50
2023-02-24T05:51:58.121Z,100514.53
2023-02-24T05:54:29.679Z,100518.69
2023-02-24T05:56:58.470Z,100519.50
2023-02-24T05:59:32.781Z,100520.13
2023-02-24T06:02:07.627Z,100523.47
2023-02-24T06:04:46.755Z,100522.63
2023-02-24T06:07:19.370Z,100522.63
2023-02-24T06:09:50.454Z,100519.50
2023-02-24T06:12:18.670Z,100513.09
2023-02-24T06:14:46.841Z,100513.09
2023-02-24T06:17:17.164Z,100507.50
2023-02-24T06:19:45.405Z,100510.31
2023-02-24T06:22:13.966Z,100501.91
2023-02-24T06:24:44.467Z,100504.72
2023-02-24T06:27:17.900Z,100491.53
2023-02-24T06:29:46.370Z,100490.75
2023-02-24T06:32:14.701Z,100492.25
2023-02-24T06:34:44.329Z,100498.31
2023-02-24T06:37:13.140Z,100497.13
2023-02-24T06:39:41.606Z,100487.94
2023-02-24T06:42:10.616Z,100478.75
2023-02-24T06:44:39.313Z,100485.16
2023-02-24T06:47:08.340Z,100473.16
2023-02-24T06:49:36.896Z,100475.13
2023-02-24T06:52:07.156Z,100468.72
2023-02-24T06:54:36.311Z,100472.31
2023-02-24T06:57:04.772Z,100466.72
2023-02-24T06:59:32.944Z,100462.31
2023-02-24T07:02:02.104Z,100455.53
2023-02-24T07:04:30.589Z,100455.19
2023-02-24T07:07:03.658Z,100451.59
2023-02-24T07:09:33.433Z,100451.59
2023-02-24T07:12:03.076Z,100454.38
2023-02-24T07:14:31.927Z,100452.41
2023-02-24T07:17:00.161Z,100451.59
2023-02-24T07:19:29.324Z,100451.59
2023-02-24T07:22:00.393Z,100454.75
2023-02-24T07:24:33.420Z,100442.75
2023-02-24T07:27:04.068Z,100438.34
2023-02-24T07:29:32.481Z,100432.31
2023-02-24T07:32:01.790Z,100431.50
2023-02-24T07:34:30.097Z,100427.88
2023-02-24T07:36:58.284Z,100425.09
2023-02-24T07:39:26.485Z,100419.50
2023-02-24T07:41:55.773Z,100415.09
2023-02-24T07:44:25.398Z,100413.91
2023-02-24T07:46:53.605Z,100399.94
2023-02-24T07:49:23.480Z,100401.09
2023-02-24T07:51:53.067Z,100394.34
2023-02-24T07:54:21.567Z,100393.19
2023-02-24T07:56:57.041Z,100382.00
2023-02-24T07:59:27.465Z,100377.56
2023-02-24T08:01:56.304Z,100369.16
2023-02-24T08:04:25.528Z,100371.97
2023-02-24T08:06:57.218Z,100364.75
2023-02-24T08:09:39.835Z,100364.75
2023-02-24T08:12:08.273Z,100349.19
2023-02-24T08:14:44.727Z,100353.16
2023-02-24T08:17:16.693Z,100349.19
2023-02-24T08:19:47.025Z,100339.59
2023-02-24T08:22:21.246Z,100335.59
2023-02-24T08:24:51.101Z,100334.78
2023-02-24T08:27:20.321Z,100334.78
2023-02-24T08:30:00.081Z,100330.78
2023-02-24T08:32:33.850Z,100318.00
2023-02-24T08:35:05.027Z,100316.75
2023-02-24T08:37:39.833Z,100312.34
2023-02-24T08:40:29.644Z,100309.91
2023-02-24T08:42:59.792Z,100302.72
2023-02-24T08:45:29.515Z,100296.31
2023-02-24T08:48:00.784Z,100295.50
2023-02-24T08:50:31.324Z,100291.53
2023-02-24T08:53:01.202Z,100288.38
2023-02-24T08:55:33.129Z,100283.59
2023-02-24T08:58:01.797Z,100279.59
2023-02-24T09:00:49.308Z,100278.00
2023-02-24T09:03:28.136Z,100274.00
2023-02-24T09:06:00.015Z,100272.47
2023-02-24T09:08:32.771Z,100270.84
2023-02-24T09:11:01.925Z,100262.09
2023-02-24T09:13:33.212Z,100263.28
2023-02-24T09:16:04.031Z,100253.72
2023-02-24T09:18:38.488Z,100250.91
2023-02-24T09:21:28.114Z,100252.53
2023-02-24T09:23:56.172Z,100249.34
2023-02-24T09:26:24.371Z,100242.94
2023-02-24T09:28:56.983Z,100237.38
2023-02-24T09:31:40.966Z,100222.59
2023-02-24T09:34:11.058Z,100230.59
2023-02-24T09:36:45.181Z,100223.38
2023-02-24T09:39:15.981Z,100212.59
2023-02-24T09:41:57.746Z,100223.81
2023-02-24T10:19:41.384Z,100151.63
2023-02-24T10:30:26.707Z,100152.63
2023-02-24T10:33:26.120Z,100155.88
2023-02-24T10:36:43.741Z,100137.81
2023-02-24T10:39:17.382Z,100141.53
2023-02-24T10:41:47.367Z,100140.72
2023-02-24T10:44:21.001Z,100130.34
2023-02-24T10:46:50.483Z,100118.34
2023-02-24T10:53:55.496Z,100122.75
2023-02-24T10:57:34.856Z,100109.41
2023-02-24T11:04:11.336Z,100105.31
2023-02-24T11:07:29.340Z,100115.88
2023-02-24T11:10:11.734Z,100106.31
2023-02-24T11:16:31.000Z,100095.13
2023-02-24T11:19:12.509Z,100092.41
2023-02-24T11:25:30.422Z,100082.44
2023-02-24T11:28:10.677Z,100077.63
2023-02-24T11:31:02.705Z,100067.97
2023-02-24T11:33:35.167Z,100066.00
2023-02-24T11:36:05.870Z,100061.16
2023-02-24T11:38:41.173Z,100069.56
2023-02-24T11:45:11.595Z,100036.75
2023-02-24T11:47:41.719Z,100035.16
2023-02-24T11:50:22.166Z,100035.94
2023-02-24T11:53:07.132Z,100011.91
2023-02-24T11:55:54.762Z,100005.84
2023-02-24T11:58:26.176Z,100014.69
2023-02-24T12:01:01.161Z,100010.28
2023-02-24T12:04:38.475Z,99997.72
2023-02-24T12:16:14.439Z,99956.50
2023-02-24T12:19:04.798Z,99953.63
2023-02-24T12:21:42.056Z,99952.97
2023-02-24T12:24:49.817Z,99941.81
2023-02-24T12:27:33.620Z,99951.50
2023-02-24T12:30:23.017Z,99943.56
2023-02-24T12:32:57.772Z,99937.19
2023-02-24T12:35:32.320Z,99925.22
2023-02-24T12:38:05.436Z,99922.88
2023-02-24T12:41:08.523Z,99921.22
2023-02-24T12:43:37.769Z,99924.38
2023-02-24T12:46:43.723Z,99908.38
2023-02-24T12:49:16.373Z,99914.84
2023-02-24T12:51:48.089Z,99897.28
2023-02-24T12:58:11.547Z,99889.31
2023-02-24T13:09:39.300Z,99859.00
2023-02-24T13:12:36.678Z,99858.97
2023-02-24T13:15:06.768Z,99856.59
2023-02-24T13:17:35.479Z,99837.06
2023-02-24T13:20:26.399Z,99841.13
2023-02-24T13:22:55.087Z,99833.50
2023-02-24T13:25:30.572Z,99809.41
2023-02-24T13:28:25.163Z,99811.84
2023-02-24T13:30:59.957Z,99815.91
2023-02-24T13:33:49.107Z,99795.09
2023-02-24T13:36:21.726Z,99803.94
2023-02-24T13:38:51.751Z,99804.41
2023-02-24T13:44:55.848Z,99793.38
2023-02-24T13:51:39.431Z,99792.28
2023-02-24T13:54:13.594Z,99788.72
2023-02-24T13:56:45.449Z,99776.75
2023-02-24T13:59:53.466Z,99768.75
2023-02-24T14:10:19.233Z,99757.66
2023-02-24T14:15:44.543Z,99754.13
2023-02-24T14:22:20.128Z,99741.69
2023-02-24T14:28:57.996Z,99730.97
2023-02-24T14:31:55.573Z,99722.56
2023-02-24T14:34:31.602Z,99725.03
2023-02-24T14:38:02.415Z,99713.03
2023-02-24T14:40:33.689Z,99710.63
2023-02-24T14:43:03.849Z,99721.91
2023-02-24T14:45:33.929Z,99715.88
2023-02-24T14:48:22.077Z,99713.91
2023-02-24T14:50:52.469Z,99709.91
2023-02-24T14:57:41.239Z,99701.13
2023-02-24T15:00:40.234Z,99705.50
2023-02-24T15:03:19.279Z,99692.34
2023-02-24T15:05:51.934Z,99692.34
2023-02-24T15:09:04.172Z,99685.16
2023-02-24T15:11:38.736Z,99664.75
2023-02-24T15:25:45.381Z,99646.84
2023-02-24T15:28:45.999Z,99645.22
2023-02-24T15:31:19.032Z,99637.66
2023-02-24T15:37:26.959Z,99626.91
2023-02-24T15:40:04.023Z,99624.91
2023-02-24T15:46:04.870Z,99620.91
2023-02-24T15:48:50.425Z,99614.53
2023-02-24T18:18:43.282Z,99452.34
2023-02-24T18:21:12.421Z,99443.56
2023-02-24T18:24:45.404Z,99445.91
2023-02-24T18:27:13.671Z,99441.97
2023-02-24T18:29:49.049Z,99443.13
2023-02-24T18:32:17.631Z,99436.34
2023-02-24T18:34:47.516Z,99437.94
2023-02-24T18:37:15.568Z,99427.16
2023-02-24T18:40:03.535Z,99434.75
2023-02-24T18:42:33.715Z,99421.97
2023-02-24T18:45:03.270Z,99418.38
2023-02-24T18:47:54.061Z,99421.16
2023-02-24T18:50:27.289Z,99425.56
2023-02-24T18:52:57.177Z,99407.59
2023-02-24T18:55:25.792Z,99402.81
2023-02-24T18:57:53.998Z,99412.38
2023-02-24T19:00:29.193Z,99406.81
2023-02-24T19:03:06.248Z,99408.44
2023-02-24T19:05:38.750Z,99412.81
2023-02-24T19:08:12.817Z,99404.44
2023-02-24T19:10:57.817Z,99384.44
2023-02-24T19:13:26.675Z,99398.84
2023-02-24T19:15:55.048Z,99390.47
2023-02-24T19:18:24.978Z,99386.06
2023-02-24T19:20:54.247Z,99383.28
2023-02-24T19:23:22.391Z,99386.44
2023-02-24T19:26:23.486Z,99388.06
2023-02-24T19:56:47.050Z,99347.75
2023-02-24T19:59:16.461Z,99349.38
2023-02-24T20:02:39.312Z,99354.13
2023-02-24T20:05:29.042Z,99342.16
2023-02-24T20:08:09.657Z,99347.38
2023-02-24T20:14:40.760Z,99327.78
2023-02-24T20:17:11.204Z,99336.97
2023-02-24T20:27:09.831Z,99326.19
2023-02-24T20:30:05.187Z,99331.78
2023-02-24T20:33:09.820Z,99319.00
2023-02-24T20:35:44.617Z,99325.00
2023-02-24T20:38:14.538Z,99322.19
2023-02-24T20:45:10.757Z,99319.41
2023-02-24T20:48:06.625Z,99302.63
2023-02-24T20:59:31.271Z,99301.44
2023-02-24T21:02:22.126Z,99301.84
2023-02-24T21:04:55.965Z,99295.06
2023-02-24T21:08:08.514Z,99285.47
2023-02-24T21:11:09.414Z,99304.66
2023-02-24T21:22:15.358Z,99277.50
2023-02-24T21:25:11.989Z,99272.72
2023-02-24T21:27:43.664Z,99269.13
2023-02-24T21:30:14.728Z,99261.53
2023-02-24T21:32:47.077Z,99263.13
2023-02-24T21:35:18.497Z,99261.53
2023-02-24T21:37:52.864Z,99255.16
2023-02-24T21:40:26.066Z,99250.34
2023-02-24T21:43:06.138Z,99255.13
2023-02-24T21:45:43.234Z,99247.94
2023-02-24T21:48:15.373Z,99243.19
2023-02-24T22:01:06.982Z,99223.19
2023-02-24T22:13:22.633Z,99216.81
2023-02-24T22:24:53.988Z,99201.25
2023-02-24T22:27:37.182Z,99196.44
2023-02-24T22:30:08.041Z,99195.25
2023-02-24T22:32:38.981Z,99192.88
2023-02-24T22:35:15.999Z,99201.63
2023-02-24T22:37:54.130Z,99188.09
2023-02-24T22:40:24.755Z,99198.47
2023-02-24T22:43:04.984Z,99195.25
2023-02-24T22:45:36.914Z,99196.06
2023-02-24T22:48:08.697Z,99201.66
2023-02-24T22:50:52.183Z,99192.06
2023-02-24T22:53:26.499Z,99194.06
2023-02-24T22:56:00.822Z,99192.84
2023-02-24T22:58:29.416Z,99186.47
2023-02-24T23:01:01.076Z,99192.06
2023-02-24T23:03:33.798Z,99189.66
2023-02-24T23:06:16.163Z,99184.09
2023-02-24T23:08:46.393Z,99189.66
2023-02-24T23:11:17.417Z,99191.66
2023-02-24T23:13:54.029Z,99188.88
2023-02-24T23:16:23.963Z,99185.28
2023-02-24T23:19:01.507Z,99188.09
2023-02-24T23:21:33.752Z,99180.88
2023-02-24T23:24:05.063Z,99192.47
2023-02-24T23:26:36.740Z,99194.47
2023-02-24T23:29:06.837Z,99185.28
2023-02-24T23:31:36.468Z,99188.09
2023-02-24T23:34:08.980Z,99185.28
2023-02-24T23:36:44.015Z,99188.09
2023-02-24T23:39:15.500Z,99191.25
2023-02-24T23:41:46.904Z,99184.88
2023-02-24T23:44:15.332Z,99190.47
2023-02-24T23:46:44.549Z,99181.28
2023-02-24T23:49:13.590Z,99174.09
2023-02-24T23:51:48.969Z,99172.91
2023-02-24T23:54:23.387Z,99168.91
2023-02-24T23:57:00.169Z,99168.50
2023-02-24T23:59:43.449Z,99160.13
